Tropical Cyclones
[Index]
Main Index Home Page Stock Weather Photos Extreme Storms Discussion Storm News and Storm Chasing Reports Tropical Cyclones / Hurricanes / Typhoons Weather Data and Links Wild Fires / Bushfires Weather Observation Techniques Weather Picture Catalogue Tornado Pictures and Reports Stock Video Footage and DVDs for sale
Season 1991-1992 Tropical Cyclone IAN Track Map
Season 1991-1992 Summaries: [BoM-AU] [JTWC-AU] [JTWC-SIO] [JTWC-SPAC] [JTWC-SH]
<<- Previous TC | BoM 1991-1992 Season | Next TC ->>

click for intensity scale information  Lat/long Grid: Show Hide

 Date Labels: Show Hide

Bureau of Meteorology Tropical Cyclone Data

Name: IAN
Number: 748 / 199192_06

27 Feb 1992 00:00 UTC to 04 Mar 1992 00:00 UTC

    date/time    lat    long    hPa   cat  kts
1992-02-27 00   11.8   114.3   1000         31          
1992-02-27 06   11.7   114.5    995    1    39          
1992-02-27 12   11.7   115.1    995    1    39          
1992-02-27 18   11.6   115.5    990    1    47          
1992-02-28 00   11.6   115.9    980    2    60          
1992-02-28 06   11.6   116.5    970    3    74          
1992-02-28 12   11.9   116.9    960    3    84          
1992-02-28 18   12.4   117.2    955    4    89          
1992-02-29 00   12.9   117.3    955    4    89          
1992-02-29 06   13.4   117.3    950    4    95          
1992-02-29 09   13.8   117.3    945    4    99          
1992-02-29 12   14.2   117.3    945    4    99          
1992-02-29 15   14.5   117.3    950    4    95          
1992-02-29 18   14.7   117.3    950    4    95          
1992-02-29 21   15.0   117.3    950    4    95          
1992-03-01 00   15.3   117.3    945    4    99          
1992-03-01 03   15.7   117.3    935    4    109          
1992-03-01 06   16.1   117.2    930    4    113          
1992-03-01 09   16.6   117.1    930    4    113          
1992-03-01 12   17.1   116.9    935    4    109          
1992-03-01 15   17.5   116.8    945    4    99          
1992-03-01 18   17.9   116.6    955    4    89          
1992-03-01 21   18.3   116.4    960    3    84          
1992-03-02 00   18.6   116.1    960    3    84          
1992-03-02 03   19.0   115.9    960    3    84          
1992-03-02 06   19.4   115.8    960    3    84          
1992-03-02 09   19.8   115.6    960    3    84          
1992-03-02 12   20.2   115.5    960    3    84          
1992-03-02 15   20.5   115.4    960    3    84          
1992-03-02 17   20.7   115.4    960    3    84          
1992-03-02 18   20.8   115.5    960    3    84          
1992-03-02 21   21.2   115.7    965    3    80          
1992-03-03 00   21.7   115.7    970    3    74          
1992-03-03 03   22.1   116.1    975    2    66          
1992-03-03 06   22.7   116.5    980    2    60          
1992-03-03 09   23.1   116.8    985    2    54          
1992-03-03 12   23.6   117.2    990    1    47          
1992-03-03 15   24.1   117.6    995    1    39          
1992-03-03 18   24.6   118.0    995    1    39          
1992-03-03 21   25.1   118.3   1000         31          
1992-03-04 00   25.7   118.7   1005         23          
Winds are 10-min average.

Tropical cyclone tracks developed by Michael Bath using data from the Bureau of Meteorology and Google Maps.


[Australian Severe Weather index] [Copyright Notice] [Email Contacts] [Search This Site] [Privacy Policy]
Document: tropical_cyclone_ian.htm Updated: 30 May 2013